createdAt,value
2023-03-08T00:02:21.373Z,8.25
2023-03-08T00:04:48.077Z,10.25
2023-03-08T00:07:15.268Z,8.23
2023-03-08T00:09:42.359Z,10.88
2023-03-08T00:12:10.773Z,8.38
2023-03-08T00:14:37.684Z,11.57
2023-03-08T00:17:04.839Z,8.70
2023-03-08T00:19:31.592Z,8.45
2023-03-08T00:21:58.599Z,7.75
2023-03-08T00:24:25.398Z,8.57
2023-03-08T00:26:52.043Z,9.32
2023-03-08T00:29:18.719Z,7.53
2023-03-08T00:31:45.554Z,8.57
2023-03-08T00:34:12.133Z,10.63
2023-03-08T00:36:41.069Z,6.22
2023-03-08T00:39:08.494Z,9.32
2023-03-08T00:41:37.168Z,11.00
2023-03-08T00:44:04.543Z,9.85
2023-03-08T00:46:31.397Z,7.13
2023-03-08T00:48:58.834Z,7.50
2023-03-08T00:51:26.162Z,7.78
2023-03-08T00:53:53.429Z,8.73
2023-03-08T00:56:21.472Z,10.68
2023-03-08T00:58:48.240Z,9.30
2023-03-08T01:01:18.762Z,6.97
2023-03-08T01:03:48.247Z,7.55
2023-03-08T01:06:16.429Z,9.32
2023-03-08T01:08:43.670Z,7.93
2023-03-08T01:11:21.874Z,9.85
2023-03-08T01:13:49.784Z,10.05
2023-03-08T01:16:22.721Z,10.50
2023-03-08T01:18:51.766Z,9.52
2023-03-08T01:21:21.151Z,9.23
2023-03-08T01:23:48.391Z,9.25
2023-03-08T01:26:18.350Z,9.55
2023-03-08T01:28:47.010Z,9.00
2023-03-08T01:31:17.419Z,10.38
2023-03-08T01:33:45.571Z,9.52
2023-03-08T01:36:17.273Z,7.03
2023-03-08T01:38:45.046Z,10.55
2023-03-08T01:41:19.494Z,8.15
2023-03-08T01:43:47.015Z,10.65
2023-03-08T01:46:29.153Z,7.88
2023-03-08T01:49:30.494Z,9.80
2023-03-08T01:52:14.437Z,10.50
2023-03-08T01:54:49.334Z,9.55
2023-03-08T01:57:20.270Z,9.60
2023-03-08T01:59:49.650Z,6.60
2023-03-08T02:02:21.663Z,8.93
2023-03-08T02:04:48.402Z,14.52
2023-03-08T02:07:15.416Z,9.68
2023-03-08T02:12:24.741Z,7.00
2023-03-08T02:14:51.681Z,7.97
2023-03-08T02:17:18.948Z,12.80
2023-03-08T02:19:51.627Z,10.02
2023-03-08T02:22:18.776Z,11.55
2023-03-08T02:24:46.508Z,8.77
2023-03-08T02:27:26.055Z,9.77
2023-03-08T02:29:53.625Z,11.20
2023-03-08T02:32:23.171Z,10.00
2023-03-08T02:34:50.024Z,10.95
2023-03-08T02:37:17.112Z,11.25
2023-03-08T02:39:46.265Z,10.68
2023-03-08T02:42:12.831Z,11.25
2023-03-08T02:44:39.493Z,8.77
2023-03-08T02:47:06.546Z,9.93
2023-03-08T02:49:33.394Z,8.30
2023-03-08T02:51:59.997Z,7.90
2023-03-08T02:54:26.687Z,8.30
2023-03-08T02:56:53.471Z,9.70
2023-03-08T02:59:22.145Z,10.35
2023-03-08T03:01:50.301Z,9.50
2023-03-08T03:04:17.125Z,9.98
2023-03-08T03:06:43.896Z,10.45
2023-03-08T03:09:13.436Z,9.48
2023-03-08T03:11:41.281Z,12.18
2023-03-08T03:14:08.036Z,9.85
2023-03-08T03:19:06.524Z,5.95
2023-03-08T03:21:33.554Z,8.70
2023-03-08T03:24:00.371Z,8.68
2023-03-08T03:26:35.261Z,9.38
2023-03-08T03:29:01.910Z,10.85
2023-03-08T03:31:32.985Z,8.20
2023-03-08T03:33:59.777Z,12.32
2023-03-08T03:36:27.845Z,9.32
2023-03-08T03:38:55.249Z,9.02
2023-03-08T03:41:23.693Z,9.88
2023-03-08T03:43:59.594Z,14.60
2023-03-08T03:46:26.688Z,10.63
2023-03-08T03:48:55.467Z,9.40
2023-03-08T03:51:23.946Z,8.07
2023-03-08T03:53:59.402Z,8.85
2023-03-08T03:56:27.925Z,9.43
2023-03-08T03:58:59.091Z,11.50
2023-03-08T04:01:30.027Z,13.15
2023-03-08T04:04:05.974Z,12.98
2023-03-08T04:06:36.223Z,9.88
2023-03-08T04:09:06.418Z,10.80
2023-03-08T04:11:39.759Z,10.23
2023-03-08T04:14:12.212Z,9.45
2023-03-08T04:16:39.810Z,12.23
2023-03-08T04:19:13.750Z,11.63
2023-03-08T04:21:47.292Z,13.90
2023-03-08T04:24:16.008Z,11.20
2023-03-08T04:26:45.244Z,12.15
2023-03-08T04:29:16.419Z,11.68
2023-03-08T04:31:43.538Z,11.50
2023-03-08T04:34:13.505Z,12.02
2023-03-08T04:36:41.417Z,14.63
2023-03-08T04:39:09.094Z,14.20
2023-03-08T04:41:36.186Z,11.32
2023-03-08T04:44:13.630Z,9.65
2023-03-08T04:46:45.066Z,15.18
2023-03-08T04:49:17.395Z,14.02
2023-03-08T04:51:48.559Z,13.40
2023-03-08T04:54:15.937Z,9.82
2023-03-08T04:56:48.246Z,10.63
2023-03-08T04:59:16.409Z,14.38
2023-03-08T05:01:44.076Z,14.65
2023-03-08T05:04:12.291Z,15.40
2023-03-08T05:06:40.273Z,11.98
2023-03-08T05:09:08.880Z,12.52
2023-03-08T05:11:37.830Z,13.23
2023-03-08T05:14:04.944Z,11.50
2023-03-08T05:16:32.576Z,13.80
2023-03-08T05:18:59.271Z,14.98
2023-03-08T05:21:31.857Z,15.23
2023-03-08T05:24:00.863Z,13.07
2023-03-08T05:26:31.253Z,13.75
2023-03-08T05:29:03.690Z,13.25
2023-03-08T05:31:31.510Z,11.23
2023-03-08T05:34:00.970Z,14.57
2023-03-08T05:36:34.530Z,11.93
2023-03-08T05:39:02.311Z,17.15
2023-03-08T05:41:38.357Z,13.60
2023-03-08T05:44:05.758Z,11.20
2023-03-08T05:46:34.531Z,12.18
2023-03-08T05:49:02.685Z,12.40
2023-03-08T05:51:33.544Z,13.60
2023-03-08T05:54:01.001Z,12.95
2023-03-08T05:56:27.951Z,12.48
2023-03-08T05:59:05.860Z,13.38
2023-03-08T06:01:33.057Z,14.85
2023-03-08T06:04:21.057Z,11.05
2023-03-08T06:06:49.793Z,12.63
2023-03-08T06:09:16.463Z,11.57
2023-03-08T06:11:43.969Z,10.43
2023-03-08T06:14:13.256Z,13.95
2023-03-08T06:16:40.374Z,16.70
2023-03-08T06:19:07.631Z,14.30
2023-03-08T06:21:35.780Z,14.30
2023-03-08T06:24:04.185Z,15.85
2023-03-08T06:26:31.184Z,12.85
2023-03-08T06:28:58.114Z,13.23
2023-03-08T06:31:28.768Z,11.23
2023-03-08T06:33:56.071Z,13.23
2023-03-08T06:36:26.067Z,11.75
2023-03-08T06:38:52.877Z,12.95
2023-03-08T06:41:20.799Z,11.13
2023-03-08T06:43:52.115Z,12.05
2023-03-08T06:46:19.364Z,14.30
2023-03-08T06:48:49.128Z,11.85
2023-03-08T06:51:18.213Z,11.20
2023-03-08T06:53:46.811Z,16.17
2023-03-08T06:56:17.733Z,15.75
2023-03-08T06:58:44.994Z,12.80
2023-03-08T07:01:13.778Z,13.20
2023-03-08T07:03:40.460Z,13.02
2023-03-08T07:06:10.517Z,13.45
2023-03-08T07:08:39.726Z,11.95
2023-03-08T07:11:08.733Z,14.57
2023-03-08T07:13:36.490Z,15.85
2023-03-08T07:16:11.281Z,13.48
2023-03-08T07:18:38.328Z,16.60
2023-03-08T07:21:05.566Z,14.18
2023-03-08T07:23:32.442Z,14.60
2023-03-08T07:25:59.010Z,13.82
2023-03-08T07:28:25.774Z,12.98
2023-03-08T07:30:53.563Z,11.32
2023-03-08T07:33:21.397Z,9.70
2023-03-08T07:35:48.535Z,13.75
2023-03-08T07:38:16.482Z,10.50
2023-03-08T07:40:43.147Z,13.70
2023-03-08T07:43:10.498Z,12.30
2023-03-08T07:45:52.445Z,13.65
2023-03-08T07:48:19.042Z,13.55
2023-03-08T07:50:45.825Z,15.90
2023-03-08T07:53:12.404Z,13.95
2023-03-08T07:55:39.267Z,17.13
2023-03-08T07:58:06.139Z,12.52
2023-03-08T08:00:33.218Z,15.68
2023-03-08T08:02:59.871Z,20.85
2023-03-08T08:05:26.996Z,11.48
2023-03-08T08:07:53.829Z,17.27
2023-03-08T08:10:20.507Z,11.77
2023-03-08T08:12:47.145Z,13.52
2023-03-08T08:15:13.739Z,11.18
2023-03-08T08:17:40.466Z,11.57
2023-03-08T08:20:10.484Z,11.52
2023-03-08T08:22:37.684Z,14.32
2023-03-08T08:25:06.692Z,10.55
2023-03-08T08:27:34.430Z,10.32
2023-03-08T08:30:01.397Z,11.20
2023-03-08T08:32:28.238Z,12.63
2023-03-08T08:34:54.906Z,10.38
2023-03-08T08:37:21.824Z,12.68
2023-03-08T08:39:48.528Z,13.02
2023-03-08T08:42:15.041Z,10.25
2023-03-08T08:44:42.098Z,11.85
2023-03-08T08:47:08.786Z,13.30
2023-03-08T08:49:35.637Z,8.95
2023-03-08T08:52:02.232Z,9.05
2023-03-08T08:54:28.955Z,10.80
2023-03-08T08:56:55.718Z,12.60
2023-03-08T08:59:22.279Z,14.32
2023-03-08T09:01:49.057Z,12.40
2023-03-08T09:04:17.159Z,11.38
2023-03-08T09:06:44.335Z,14.35
2023-03-08T09:09:10.905Z,14.35
2023-03-08T09:11:48.458Z,11.05
2023-03-08T09:14:20.369Z,11.82
2023-03-08T09:16:47.109Z,12.15
2023-03-08T09:19:13.821Z,8.07
2023-03-08T09:21:40.351Z,12.68
2023-03-08T09:24:09.929Z,13.43
2023-03-08T09:26:36.471Z,14.90
2023-03-08T09:29:05.504Z,10.23
2023-03-08T09:31:33.995Z,14.77
2023-03-08T09:34:00.934Z,12.98
2023-03-08T09:36:30.834Z,10.90
2023-03-08T09:38:57.976Z,13.23
2023-03-08T09:41:46.733Z,15.07
2023-03-08T09:44:32.363Z,13.38
2023-03-08T09:47:29.436Z,14.05
2023-03-08T09:50:06.399Z,12.52
2023-03-08T09:52:43.089Z,13.80
2023-03-08T09:55:19.028Z,10.00
2023-03-08T09:57:56.128Z,12.52
2023-03-08T10:00:31.528Z,14.95
2023-03-08T10:03:13.567Z,13.98
2023-03-08T10:05:53.011Z,14.27
2023-03-08T10:08:26.979Z,12.07
2023-03-08T10:11:07.305Z,12.07
2023-03-08T10:13:49.901Z,14.80
2023-03-08T10:16:24.930Z,13.32
2023-03-08T10:18:58.409Z,11.73
2023-03-08T10:21:26.643Z,11.55
2023-03-08T10:24:02.137Z,10.80
2023-03-08T10:26:28.952Z,12.73
2023-03-08T10:28:55.588Z,11.30
2023-03-08T10:31:25.998Z,12.48
2023-03-08T10:34:00.968Z,11.38
2023-03-08T10:36:30.213Z,11.77
2023-03-08T10:39:09.367Z,15.88
2023-03-08T10:41:49.319Z,12.02
2023-03-08T10:44:30.496Z,10.88
2023-03-08T10:46:57.643Z,11.57
2023-03-08T10:49:27.530Z,13.25
2023-03-08T10:52:00.553Z,11.00
2023-03-08T10:54:28.676Z,15.13
2023-03-08T10:57:01.156Z,14.23
2023-03-08T10:59:34.432Z,16.38
2023-03-08T11:02:18.544Z,13.57
2023-03-08T11:04:56.948Z,16.77
2023-03-08T11:07:29.721Z,14.15
2023-03-08T11:10:16.891Z,14.10
2023-03-08T11:12:45.010Z,13.38
2023-03-08T11:15:14.145Z,14.32
2023-03-08T11:17:53.775Z,12.88
2023-03-08T11:20:27.120Z,12.32
2023-03-08T11:23:12.727Z,14.05
2023-03-08T11:25:46.722Z,9.80
2023-03-08T11:28:27.933Z,14.52
2023-03-08T11:31:15.122Z,10.40
2023-03-08T11:34:23.454Z,11.73
2023-03-08T11:37:05.181Z,9.82
2023-03-08T11:39:46.193Z,12.27
2023-03-08T11:42:30.779Z,14.07
2023-03-08T11:45:15.399Z,13.65
2023-03-08T11:48:01.296Z,12.10
2023-03-08T11:50:36.055Z,9.55
2023-03-08T11:53:30.095Z,12.52
2023-03-08T11:56:15.611Z,14.52
2023-03-08T11:59:03.347Z,12.20
2023-03-08T12:01:43.910Z,8.10
2023-03-08T12:04:17.953Z,6.47
2023-03-08T12:06:47.311Z,7.53
2023-03-08T12:09:22.845Z,7.40
2023-03-08T12:11:52.469Z,9.80
2023-03-08T12:14:32.320Z,8.38
2023-03-08T12:17:22.897Z,6.47
2023-03-08T12:19:50.975Z,6.43
2023-03-08T12:22:31.372Z,7.60
2023-03-08T12:25:33.021Z,6.68
2023-03-08T12:28:17.645Z,5.38
2023-03-08T12:30:59.455Z,5.55
2023-03-08T12:33:27.752Z,4.50
2023-03-08T12:36:06.553Z,3.83
2023-03-08T12:38:45.548Z,3.60
2023-03-08T12:41:44.495Z,2.28
2023-03-08T12:44:25.855Z,5.65
2023-03-08T12:47:03.300Z,0.95
2023-03-08T12:49:34.518Z,1.02
2023-03-08T12:52:27.287Z,0.65
2023-03-08T12:55:03.332Z,1.35
2023-03-08T12:57:38.006Z,1.45
2023-03-08T13:00:24.837Z,0.63
2023-03-08T13:03:06.772Z,2.55
2023-03-08T13:05:38.107Z,0.40
2023-03-08T13:08:14.001Z,2.10
2023-03-08T13:10:52.324Z,0.93
2023-03-08T13:13:39.492Z,0.73
2023-03-08T13:16:22.188Z,0.93
2023-03-08T13:18:52.701Z,0.90
2023-03-08T13:21:35.474Z,1.67
2023-03-08T13:24:02.293Z,2.17
2023-03-08T13:27:23.757Z,2.40
2023-03-08T13:29:51.991Z,4.57
2023-03-08T13:32:21.349Z,0.45
2023-03-08T13:35:01.957Z,2.05
2023-03-08T13:37:30.194Z,1.80
2023-03-08T13:40:00.282Z,2.47
2023-03-08T13:42:28.927Z,0.63
2023-03-08T13:45:08.625Z,3.58
2023-03-08T13:47:38.786Z,3.47
2023-03-08T13:50:06.497Z,2.58
2023-03-08T13:52:37.547Z,1.40
2023-03-08T13:55:08.394Z,0.57
2023-03-08T13:57:38.053Z,0.53
2023-03-08T14:00:20.274Z,2.47
2023-03-08T14:02:47.405Z,0.70
2023-03-08T14:05:29.541Z,2.05
2023-03-08T14:07:57.356Z,1.40
2023-03-08T14:10:31.594Z,0.52
2023-03-08T14:12:59.735Z,0.52
2023-03-08T14:15:26.800Z,0.68
2023-03-08T14:17:53.473Z,0.52
2023-03-08T14:20:23.570Z,0.65
2023-03-08T14:22:53.136Z,0.40
2023-03-08T14:25:31.743Z,0.35
2023-03-08T14:27:58.801Z,1.05
2023-03-08T14:30:28.276Z,0.75
2023-03-08T14:33:20.138Z,0.90
2023-03-08T14:35:55.702Z,1.15
2023-03-08T14:38:28.992Z,0.85
2023-03-08T14:40:56.465Z,0.82
2023-03-08T14:43:25.802Z,4.32
2023-03-08T14:45:56.234Z,1.30
2023-03-08T14:48:25.608Z,0.57
2023-03-08T14:51:05.727Z,0.77
2023-03-08T14:53:34.696Z,2.30
2023-03-08T14:56:06.616Z,0.80
2023-03-08T14:58:38.119Z,1.60
2023-03-08T15:01:05.011Z,1.20
2023-03-08T15:03:33.249Z,0.65
2023-03-08T15:06:08.714Z,0.65
2023-03-08T15:08:35.359Z,2.95
2023-03-08T15:11:01.911Z,0.57
2023-03-08T15:13:28.677Z,0.85
2023-03-08T15:15:55.361Z,0.55
2023-03-08T15:18:21.980Z,1.23
2023-03-08T15:20:50.428Z,0.82
2023-03-08T15:23:28.871Z,0.90
2023-03-08T15:25:57.103Z,1.88
2023-03-08T15:28:24.100Z,2.38
2023-03-08T15:30:55.238Z,0.80
2023-03-08T15:33:22.605Z,0.45
2023-03-08T15:35:49.821Z,1.85
2023-03-08T15:38:18.103Z,1.98
2023-03-08T15:40:45.081Z,1.65
2023-03-08T15:43:11.666Z,1.15
2023-03-08T15:45:38.431Z,1.58
2023-03-08T15:48:07.248Z,1.58
2023-03-08T15:50:34.895Z,1.95
2023-03-08T15:53:01.830Z,1.48
2023-03-08T15:55:31.496Z,3.03
2023-03-08T15:57:58.778Z,1.45
2023-03-08T16:00:26.666Z,0.90
2023-03-08T16:02:54.030Z,1.42
2023-03-08T16:05:23.423Z,1.52
2023-03-08T16:07:59.443Z,1.05
2023-03-08T16:10:28.005Z,1.65
2023-03-08T16:12:54.741Z,1.42
2023-03-08T16:15:22.270Z,2.63
2023-03-08T16:17:48.938Z,0.90
2023-03-08T16:20:16.588Z,1.63
2023-03-08T16:22:45.546Z,2.00
2023-03-08T16:25:12.342Z,1.90
2023-03-08T16:27:39.009Z,1.80
2023-03-08T16:30:06.348Z,1.27
2023-03-08T16:32:33.159Z,1.80
2023-03-08T16:35:00.960Z,1.55
2023-03-08T16:37:28.131Z,2.00
2023-03-08T16:40:01.868Z,4.00
2023-03-08T16:42:30.029Z,1.55
2023-03-08T16:44:56.876Z,1.33
2023-03-08T16:47:25.201Z,2.42
2023-03-08T16:49:52.077Z,2.83
2023-03-08T16:52:19.039Z,1.30
2023-03-08T16:54:45.716Z,1.60
2023-03-08T16:57:19.178Z,2.83
2023-03-08T16:59:47.023Z,1.83
2023-03-08T17:02:22.871Z,2.00
2023-03-08T17:04:49.985Z,0.70
2023-03-08T17:07:17.327Z,1.20
2023-03-08T17:09:44.011Z,0.80
2023-03-08T17:12:10.834Z,0.98
2023-03-08T17:14:37.865Z,1.77
2023-03-08T17:17:05.254Z,3.78
2023-03-08T17:19:32.153Z,0.93
2023-03-08T17:21:58.892Z,1.45
2023-03-08T17:24:28.123Z,1.38
2023-03-08T17:26:55.069Z,2.05
2023-03-08T17:29:22.073Z,1.70
2023-03-08T17:31:48.956Z,1.42
2023-03-08T17:34:15.891Z,0.90
2023-03-08T17:36:43.260Z,1.17
2023-03-08T17:39:10.240Z,1.27
2023-03-08T17:41:38.490Z,1.13
2023-03-08T17:44:05.417Z,1.02
2023-03-08T17:46:32.321Z,2.45
2023-03-08T17:48:59.249Z,1.60
2023-03-08T17:51:29.723Z,1.45
2023-03-08T17:53:58.223Z,1.50
2023-03-08T17:56:29.279Z,1.92
2023-03-08T17:58:57.728Z,1.33
2023-03-08T18:01:27.067Z,1.20
2023-03-08T18:03:55.212Z,0.65
2023-03-08T18:06:29.937Z,1.20
2023-03-08T18:09:01.726Z,0.75
2023-03-08T18:11:37.374Z,0.55
2023-03-08T18:14:09.192Z,1.92
2023-03-08T18:16:36.682Z,0.70
2023-03-08T18:19:05.871Z,0.88
2023-03-08T18:21:34.532Z,1.17
2023-03-08T18:24:01.286Z,3.70
2023-03-08T18:26:28.463Z,3.05
2023-03-08T18:28:55.141Z,1.55
2023-03-08T18:31:26.053Z,0.75
2023-03-08T18:33:55.063Z,1.02
2023-03-08T18:36:22.406Z,0.70
2023-03-08T18:38:49.380Z,1.20
2023-03-08T18:41:26.098Z,0.20
2023-03-08T18:43:57.260Z,0.52
2023-03-08T18:46:29.054Z,0.88
2023-03-08T18:49:11.388Z,0.30
2023-03-08T18:51:39.387Z,1.60
2023-03-08T18:54:09.064Z,0.80
2023-03-08T18:56:35.847Z,0.20
2023-03-08T18:59:04.986Z,1.92
2023-03-08T19:01:35.093Z,1.17
2023-03-08T19:04:07.996Z,0.80
2023-03-08T19:06:36.015Z,1.27
2023-03-08T19:09:14.485Z,2.90
2023-03-08T19:11:41.979Z,2.83
2023-03-08T19:14:11.378Z,7.00
2023-03-08T19:16:38.424Z,2.00
2023-03-08T19:19:10.880Z,11.25
2023-03-08T19:21:41.432Z,3.17
2023-03-08T19:24:09.082Z,8.50
2023-03-08T19:26:37.410Z,2.25
2023-03-08T19:29:04.149Z,2.40
2023-03-08T19:31:32.003Z,1.25
2023-03-08T19:33:58.893Z,0.73
2023-03-08T19:36:25.596Z,1.08
2023-03-08T19:38:52.467Z,1.17
2023-03-08T19:41:19.043Z,0.47
2023-03-08T19:43:47.135Z,2.15
2023-03-08T19:46:17.709Z,1.80
2023-03-08T19:48:47.885Z,1.90
2023-03-08T19:51:16.926Z,1.52
2023-03-08T19:53:44.236Z,0.57
2023-03-08T19:56:16.855Z,0.85
2023-03-08T19:58:44.800Z,0.30
2023-03-08T20:01:13.611Z,2.13
2023-03-08T20:03:40.576Z,0.43
2023-03-08T20:06:07.940Z,1.67
2023-03-08T20:08:36.176Z,0.70
2023-03-08T20:11:04.395Z,0.30
2023-03-08T20:13:31.489Z,0.50
2023-03-08T20:15:58.566Z,2.90
2023-03-08T20:18:26.370Z,0.35
2023-03-08T20:20:53.339Z,2.30
2023-03-08T20:23:19.935Z,0.88
2023-03-08T20:25:46.583Z,0.77
2023-03-08T20:28:13.379Z,0.40
2023-03-08T20:30:40.143Z,0.40
2023-03-08T20:33:07.201Z,2.25
2023-03-08T20:35:33.935Z,2.60
2023-03-08T20:38:00.544Z,3.78
2023-03-08T20:40:27.234Z,0.45
2023-03-08T20:42:57.859Z,0.75
2023-03-08T20:45:25.650Z,0.83
2023-03-08T20:47:54.861Z,2.70
2023-03-08T20:50:22.056Z,0.20
2023-03-08T20:52:48.793Z,0.75
2023-03-08T20:55:15.746Z,1.13
2023-03-08T20:57:43.062Z,2.05
2023-03-08T21:00:11.948Z,0.45
2023-03-08T21:02:39.508Z,0.77
2023-03-08T21:05:07.574Z,2.63
2023-03-08T21:07:34.266Z,1.13
2023-03-08T21:10:00.984Z,0.60
2023-03-08T21:12:27.664Z,1.35
2023-03-08T21:14:54.481Z,0.30
2023-03-08T21:17:22.064Z,0.70
2023-03-08T21:19:49.253Z,0.60
2023-03-08T21:22:16.009Z,0.93
2023-03-08T21:24:42.531Z,0.63
2023-03-08T21:27:09.466Z,0.57
2023-03-08T21:29:36.224Z,0.40
2023-03-08T21:32:03.025Z,0.98
2023-03-08T21:34:29.601Z,0.25
2023-03-08T21:36:56.609Z,0.95
2023-03-08T21:39:23.588Z,2.30
2023-03-08T21:41:50.480Z,0.60
2023-03-08T21:44:19.554Z,0.90
2023-03-08T21:46:47.633Z,0.50
2023-03-08T21:49:23.925Z,0.77
2023-03-08T21:51:52.395Z,0.70
2023-03-08T21:54:19.941Z,0.85
2023-03-08T21:56:50.340Z,1.58
2023-03-08T21:59:17.375Z,0.93
2023-03-08T22:01:48.091Z,0.75
2023-03-08T22:04:16.493Z,0.88
2023-03-08T22:06:43.839Z,2.78
2023-03-08T22:09:10.819Z,1.00
2023-03-08T22:11:38.200Z,0.68
2023-03-08T22:14:05.267Z,1.77
2023-03-08T22:16:32.236Z,1.05
2023-03-08T22:19:01.484Z,2.70
2023-03-08T22:21:28.866Z,0.95
2023-03-08T22:23:58.160Z,0.50
2023-03-08T22:26:26.383Z,0.40
2023-03-08T22:28:54.765Z,3.58
2023-03-08T22:31:23.772Z,0.52
2023-03-08T22:33:51.070Z,1.08
2023-03-08T22:36:19.495Z,0.90
2023-03-08T22:38:46.338Z,1.10
2023-03-08T22:41:16.237Z,0.88
2023-03-08T22:43:44.337Z,3.63
2023-03-08T22:46:16.058Z,0.60
2023-03-08T22:48:45.020Z,3.28
2023-03-08T22:51:12.666Z,1.20
2023-03-08T22:53:40.874Z,1.02
2023-03-08T22:56:15.467Z,1.70
2023-03-08T22:58:42.427Z,1.20
2023-03-08T23:01:14.933Z,0.38
2023-03-08T23:03:41.953Z,0.60
2023-03-08T23:06:08.879Z,2.38
2023-03-08T23:08:35.753Z,2.65
2023-03-08T23:11:02.534Z,2.40
2023-03-08T23:13:34.227Z,1.00
2023-03-08T23:16:01.966Z,1.38
2023-03-08T23:18:29.047Z,0.73
2023-03-08T23:20:55.719Z,0.88
2023-03-08T23:23:25.308Z,1.38
2023-03-08T23:25:52.633Z,1.33
2023-03-08T23:28:20.149Z,0.70
2023-03-08T23:30:47.038Z,1.85
2023-03-08T23:33:14.193Z,1.25
2023-03-08T23:35:40.997Z,1.70
2023-03-08T23:38:07.948Z,2.13
2023-03-08T23:40:38.864Z,0.68
2023-03-08T23:43:06.593Z,2.58
2023-03-08T23:45:33.425Z,1.15
2023-03-08T23:48:02.916Z,0.38
2023-03-08T23:50:29.824Z,2.42
2023-03-08T23:52:56.512Z,2.92
2023-03-08T23:55:23.486Z,0.52
2023-03-08T23:57:50.178Z,1.15
